sensor_id;sensor_type;location;lat;lon;timestamp;temperature;humidity
78212;SHT31;67490;52.086;5.122;2023-02-28T00:02:35;5.23;68.12
78212;SHT31;67490;52.086;5.122;2023-02-28T00:05:21;5.17;67.93
78212;SHT31;67490;52.086;5.122;2023-02-28T00:08:05;5.17;68.15
78212;SHT31;67490;52.086;5.122;2023-02-28T00:10:52;5.08;68.42
78212;SHT31;67490;52.086;5.122;2023-02-28T00:13:39;5.23;68.15
78212;SHT31;67490;52.086;5.122;2023-02-28T00:16:23;5.20;67.79
78212;SHT31;67490;52.086;5.122;2023-02-28T00:19:08;5.39;68.05
78212;SHT31;67490;52.086;5.122;2023-02-28T00:21:52;5.56;67.56
78212;SHT31;67490;52.086;5.122;2023-02-28T00:24:37;5.68;66.88
78212;SHT31;67490;52.086;5.122;2023-02-28T00:27:23;5.69;66.89
78212;SHT31;67490;52.086;5.122;2023-02-28T00:30:10;5.78;66.74
78212;SHT31;67490;52.086;5.122;2023-02-28T00:32:56;5.80;66.52
78212;SHT31;67490;52.086;5.122;2023-02-28T00:35:40;5.66;66.61
78212;SHT31;67490;52.086;5.122;2023-02-28T00:38:24;5.58;67.18
78212;SHT31;67490;52.086;5.122;2023-02-28T00:41:09;5.65;67.05
78212;SHT31;67490;52.086;5.122;2023-02-28T00:43:55;5.69;66.56
78212;SHT31;67490;52.086;5.122;2023-02-28T00:46:39;5.44;68.23
78212;SHT31;67490;52.086;5.122;2023-02-28T00:49:24;5.68;67.12
78212;SHT31;67490;52.086;5.122;2023-02-28T00:52:09;5.78;66.93
78212;SHT31;67490;52.086;5.122;2023-02-28T00:54:53;5.85;66.56
78212;SHT31;67490;52.086;5.122;2023-02-28T00:57:38;5.90;66.26
78212;SHT31;67490;52.086;5.122;2023-02-28T01:00:24;5.90;66.72
78212;SHT31;67490;52.086;5.122;2023-02-28T01:03:08;5.87;66.61
78212;SHT31;67490;52.086;5.122;2023-02-28T01:05:52;5.92;66.49
78212;SHT31;67490;52.086;5.122;2023-02-28T01:08:37;5.83;66.63
78212;SHT31;67490;52.086;5.122;2023-02-28T01:11:22;5.87;66.69
78212;SHT31;67490;52.086;5.122;2023-02-28T01:14:06;5.73;67.42
78212;SHT31;67490;52.086;5.122;2023-02-28T01:16:51;5.83;67.43
78212;SHT31;67490;52.086;5.122;2023-02-28T01:19:35;5.93;67.16
78212;SHT31;67490;52.086;5.122;2023-02-28T01:22:20;6.06;66.63
78212;SHT31;67490;52.086;5.122;2023-02-28T01:25:05;5.97;66.71
78212;SHT31;67490;52.086;5.122;2023-02-28T01:27:50;6.10;66.32
78212;SHT31;67490;52.086;5.122;2023-02-28T01:30:34;6.17;66.36
78212;SHT31;67490;52.086;5.122;2023-02-28T01:33:20;6.11;66.71
78212;SHT31;67490;52.086;5.122;2023-02-28T01:36:09;5.99;66.67
78212;SHT31;67490;52.086;5.122;2023-02-28T01:38:53;6.02;66.66
78212;SHT31;67490;52.086;5.122;2023-02-28T01:41:38;5.86;67.22
78212;SHT31;67490;52.086;5.122;2023-02-28T01:44:56;6.03;66.62
78212;SHT31;67490;52.086;5.122;2023-02-28T01:47:43;6.06;66.82
78212;SHT31;67490;52.086;5.122;2023-02-28T01:50:36;6.11;66.51
78212;SHT31;67490;52.086;5.122;2023-02-28T01:53:26;6.02;67.06
78212;SHT31;67490;52.086;5.122;2023-02-28T01:56:19;5.90;67.25
78212;SHT31;67490;52.086;5.122;2023-02-28T01:59:04;5.96;67.08
78212;SHT31;67490;52.086;5.122;2023-02-28T02:01:49;5.99;67.05
78212;SHT31;67490;52.086;5.122;2023-02-28T02:04:38;6.10;66.94
78212;SHT31;67490;52.086;5.122;2023-02-28T02:07:31;6.13;66.55
78212;SHT31;67490;52.086;5.122;2023-02-28T02:10:18;6.02;67.45
78212;SHT31;67490;52.086;5.122;2023-02-28T02:16:23;5.99;67.16
78212;SHT31;67490;52.086;5.122;2023-02-28T02:19:44;5.99;67.25
78212;SHT31;67490;52.086;5.122;2023-02-28T02:23:09;5.49;69.19
78212;SHT31;67490;52.086;5.122;2023-02-28T02:33:06;5.55;69.27
78212;SHT31;67490;52.086;5.122;2023-02-28T02:36:01;5.47;69.34
78212;SHT31;67490;52.086;5.122;2023-02-28T02:38:52;5.70;68.96
78212;SHT31;67490;52.086;5.122;2023-02-28T02:41:45;5.80;68.59
78212;SHT31;67490;52.086;5.122;2023-02-28T02:44:36;6.11;67.49
78212;SHT31;67490;52.086;5.122;2023-02-28T02:47:28;6.09;67.41
78212;SHT31;67490;52.086;5.122;2023-02-28T02:50:19;6.11;67.16
78212;SHT31;67490;52.086;5.122;2023-02-28T02:53:09;6.03;67.39
78212;SHT31;67490;52.086;5.122;2023-02-28T02:55:56;5.93;68.18
78212;SHT31;67490;52.086;5.122;2023-02-28T02:58:44;6.06;67.89
78212;SHT31;67490;52.086;5.122;2023-02-28T03:01:32;6.20;67.09
78212;SHT31;67490;52.086;5.122;2023-02-28T03:04:20;6.03;67.79
78212;SHT31;67490;52.086;5.122;2023-02-28T03:07:05;6.18;67.53
78212;SHT31;67490;52.086;5.122;2023-02-28T03:09:52;6.10;67.83
78212;SHT31;67490;52.086;5.122;2023-02-28T03:12:44;6.23;67.51
78212;SHT31;67490;52.086;5.122;2023-02-28T03:15:42;6.31;66.92
78212;SHT31;67490;52.086;5.122;2023-02-28T03:18:41;6.34;67.30
78212;SHT31;67490;52.086;5.122;2023-02-28T03:21:35;6.54;66.66
78212;SHT31;67490;52.086;5.122;2023-02-28T03:24:30;6.51;66.86
78212;SHT31;67490;52.086;5.122;2023-02-28T03:27:25;6.63;66.12
78212;SHT31;67490;52.086;5.122;2023-02-28T03:30:17;6.67;65.75
78212;SHT31;67490;52.086;5.122;2023-02-28T03:33:08;6.64;66.34
78212;SHT31;67490;52.086;5.122;2023-02-28T03:35:58;6.67;66.77
78212;SHT31;67490;52.086;5.122;2023-02-28T03:38:48;6.74;65.89
78212;SHT31;67490;52.086;5.122;2023-02-28T03:41:40;6.67;66.15
78212;SHT31;67490;52.086;5.122;2023-02-28T03:44:33;6.65;66.11
78212;SHT31;67490;52.086;5.122;2023-02-28T03:47:25;6.63;66.23
78212;SHT31;67490;52.086;5.122;2023-02-28T03:50:16;6.55;66.63
78212;SHT31;67490;52.086;5.122;2023-02-28T03:53:07;6.61;66.59
78212;SHT31;67490;52.086;5.122;2023-02-28T03:55:59;6.69;66.35
78212;SHT31;67490;52.086;5.122;2023-02-28T03:58:49;6.71;66.09
78212;SHT31;67490;52.086;5.122;2023-02-28T04:01:39;6.59;66.34
78212;SHT31;67490;52.086;5.122;2023-02-28T04:04:25;6.49;67.06
78212;SHT31;67490;52.086;5.122;2023-02-28T04:07:11;6.45;67.69
78212;SHT31;67490;52.086;5.122;2023-02-28T04:09:56;6.45;67.51
78212;SHT31;67490;52.086;5.122;2023-02-28T04:12:41;6.45;67.36
78212;SHT31;67490;52.086;5.122;2023-02-28T04:15:25;6.48;67.53
78212;SHT31;67490;52.086;5.122;2023-02-28T04:18:12;6.31;67.97
78212;SHT31;67490;52.086;5.122;2023-02-28T04:20:59;6.34;67.69
78212;SHT31;67490;52.086;5.122;2023-02-28T04:23:44;6.09;68.76
78212;SHT31;67490;52.086;5.122;2023-02-28T04:26:29;6.21;68.49
78212;SHT31;67490;52.086;5.122;2023-02-28T04:29:18;6.06;69.95
78212;SHT31;67490;52.086;5.122;2023-02-28T04:32:04;6.11;69.11
78212;SHT31;67490;52.086;5.122;2023-02-28T04:34:50;6.14;68.10
78212;SHT31;67490;52.086;5.122;2023-02-28T04:37:34;5.87;69.66
78212;SHT31;67490;52.086;5.122;2023-02-28T04:40:20;5.99;68.56
78212;SHT31;67490;52.086;5.122;2023-02-28T04:43:05;5.99;68.10
78212;SHT31;67490;52.086;5.122;2023-02-28T04:45:49;6.07;66.81
78212;SHT31;67490;52.086;5.122;2023-02-28T04:48:35;5.96;67.03
78212;SHT31;67490;52.086;5.122;2023-02-28T04:51:21;5.90;65.77
78212;SHT31;67490;52.086;5.122;2023-02-28T04:54:07;5.85;66.31
78212;SHT31;67490;52.086;5.122;2023-02-28T04:56:51;5.92;62.89
78212;SHT31;67490;52.086;5.122;2023-02-28T04:59:36;5.78;59.46
78212;SHT31;67490;52.086;5.122;2023-02-28T05:02:20;5.47;60.67
78212;SHT31;67490;52.086;5.122;2023-02-28T05:05:05;5.51;60.91
78212;SHT31;67490;52.086;5.122;2023-02-28T05:07:51;5.55;61.11
78212;SHT31;67490;52.086;5.122;2023-02-28T05:10:36;5.79;60.04
78212;SHT31;67490;52.086;5.122;2023-02-28T05:13:20;5.68;60.30
78212;SHT31;67490;52.086;5.122;2023-02-28T05:16:05;5.78;59.24
78212;SHT31;67490;52.086;5.122;2023-02-28T05:18:49;5.69;60.59
78212;SHT31;67490;52.086;5.122;2023-02-28T05:21:35;5.82;60.44
78212;SHT31;67490;52.086;5.122;2023-02-28T05:24:22;5.95;60.27
78212;SHT31;67490;52.086;5.122;2023-02-28T05:27:10;6.07;60.19
78212;SHT31;67490;52.086;5.122;2023-02-28T05:29:54;6.16;60.21
78212;SHT31;67490;52.086;5.122;2023-02-28T05:32:40;6.13;58.78
78212;SHT31;67490;52.086;5.122;2023-02-28T05:35:27;6.09;58.86
78212;SHT31;67490;52.086;5.122;2023-02-28T05:38:11;6.16;58.32
78212;SHT31;67490;52.086;5.122;2023-02-28T05:40:57;5.97;57.94
78212;SHT31;67490;52.086;5.122;2023-02-28T05:43:42;5.73;59.42
78212;SHT31;67490;52.086;5.122;2023-02-28T05:46:26;5.44;60.81
78212;SHT31;67490;52.086;5.122;2023-02-28T05:49:11;5.39;61.86
78212;SHT31;67490;52.086;5.122;2023-02-28T05:51:55;5.01;64.18
78212;SHT31;67490;52.086;5.122;2023-02-28T05:54:40;4.97;65.53
78212;SHT31;67490;52.086;5.122;2023-02-28T05:57:26;4.81;67.01
78212;SHT31;67490;52.086;5.122;2023-02-28T06:00:12;4.89;67.95
78212;SHT31;67490;52.086;5.122;2023-02-28T06:02:59;5.00;67.54
78212;SHT31;67490;52.086;5.122;2023-02-28T06:05:45;5.07;67.79
78212;SHT31;67490;52.086;5.122;2023-02-28T06:08:30;5.17;68.20
78212;SHT31;67490;52.086;5.122;2023-02-28T06:11:14;5.00;69.25
78212;SHT31;67490;52.086;5.122;2023-02-28T06:14:01;4.89;69.89
78212;SHT31;67490;52.086;5.122;2023-02-28T06:16:46;4.86;70.74
78212;SHT31;67490;52.086;5.122;2023-02-28T06:19:30;4.87;71.01
78212;SHT31;67490;52.086;5.122;2023-02-28T06:22:15;4.91;71.36
78212;SHT31;67490;52.086;5.122;2023-02-28T06:25:00;5.00;70.77
78212;SHT31;67490;52.086;5.122;2023-02-28T06:27:44;5.03;71.14
78212;SHT31;67490;52.086;5.122;2023-02-28T06:30:30;5.07;71.16
78212;SHT31;67490;52.086;5.122;2023-02-28T06:33:15;5.07;71.11
78212;SHT31;67490;52.086;5.122;2023-02-28T06:35:59;5.14;71.04
78212;SHT31;67490;52.086;5.122;2023-02-28T06:38:44;5.24;70.46
78212;SHT31;67490;52.086;5.122;2023-02-28T06:41:28;5.27;70.55
78212;SHT31;67490;52.086;5.122;2023-02-28T06:44:13;5.27;70.76
78212;SHT31;67490;52.086;5.122;2023-02-28T06:46:59;5.31;70.69
78212;SHT31;67490;52.086;5.122;2023-02-28T06:49:44;5.35;70.11
78212;SHT31;67490;52.086;5.122;2023-02-28T06:52:29;5.41;70.66
78212;SHT31;67490;52.086;5.122;2023-02-28T06:55:13;5.45;70.50
78212;SHT31;67490;52.086;5.122;2023-02-28T06:57:57;5.49;70.45
78212;SHT31;67490;52.086;5.122;2023-02-28T07:00:42;5.48;70.43
78212;SHT31;67490;52.086;5.122;2023-02-28T07:03:29;5.52;70.60
78212;SHT31;67490;52.086;5.122;2023-02-28T07:06:13;5.55;70.43
78212;SHT31;67490;52.086;5.122;2023-02-28T07:08:58;5.65;70.27
78212;SHT31;67490;52.086;5.122;2023-02-28T07:11:43;5.78;70.52
78212;SHT31;67490;52.086;5.122;2023-02-28T07:14:27;5.92;69.74
78212;SHT31;67490;52.086;5.122;2023-02-28T07:17:12;6.02;69.11
78212;SHT31;67490;52.086;5.122;2023-02-28T07:19:58;5.95;69.59
78212;SHT31;67490;52.086;5.122;2023-02-28T07:22:42;5.87;70.02
78212;SHT31;67490;52.086;5.122;2023-02-28T07:25:28;5.86;70.11
78212;SHT31;67490;52.086;5.122;2023-02-28T07:28:13;5.92;69.73
78212;SHT31;67490;52.086;5.122;2023-02-28T07:31:03;5.87;70.32
78212;SHT31;67490;52.086;5.122;2023-02-28T07:33:48;5.73;70.32
78212;SHT31;67490;52.086;5.122;2023-02-28T07:36:34;5.72;71.09
78212;SHT31;67490;52.086;5.122;2023-02-28T07:39:19;5.38;72.11
78212;SHT31;67490;52.086;5.122;2023-02-28T07:42:04;5.35;72.33
78212;SHT31;67490;52.086;5.122;2023-02-28T07:44:48;5.31;72.93
78212;SHT31;67490;52.086;5.122;2023-02-28T07:47:33;5.60;71.08
78212;SHT31;67490;52.086;5.122;2023-02-28T07:50:17;5.65;71.02
78212;SHT31;67490;52.086;5.122;2023-02-28T07:53:03;5.47;71.81
78212;SHT31;67490;52.086;5.122;2023-02-28T07:55:48;5.35;72.14
78212;SHT31;67490;52.086;5.122;2023-02-28T07:58:33;5.35;72.09
78212;SHT31;67490;52.086;5.122;2023-02-28T08:01:18;5.31;71.70
78212;SHT31;67490;52.086;5.122;2023-02-28T08:04:03;5.35;72.47
78212;SHT31;67490;52.086;5.122;2023-02-28T08:06:48;5.48;71.30
78212;SHT31;67490;52.086;5.122;2023-02-28T08:09:34;5.31;72.27
78212;SHT31;67490;52.086;5.122;2023-02-28T08:12:19;5.32;72.87
78212;SHT31;67490;52.086;5.122;2023-02-28T08:15:04;5.54;71.86
78212;SHT31;67490;52.086;5.122;2023-02-28T08:17:48;5.69;70.98
78212;SHT31;67490;52.086;5.122;2023-02-28T08:20:33;5.48;72.18
78212;SHT31;67490;52.086;5.122;2023-02-28T08:23:17;5.37;72.82
78212;SHT31;67490;52.086;5.122;2023-02-28T08:26:04;5.35;72.67
78212;SHT31;67490;52.086;5.122;2023-02-28T08:28:49;5.31;73.50
78212;SHT31;67490;52.086;5.122;2023-02-28T08:31:34;5.60;71.85
78212;SHT31;67490;52.086;5.122;2023-02-28T08:34:19;5.66;72.15
78212;SHT31;67490;52.086;5.122;2023-02-28T08:37:04;5.93;71.32
78212;SHT31;67490;52.086;5.122;2023-02-28T08:39:48;5.96;70.70
78212;SHT31;67490;52.086;5.122;2023-02-28T08:42:33;5.89;70.21
78212;SHT31;67490;52.086;5.122;2023-02-28T08:45:18;5.75;71.38
78212;SHT31;67490;52.086;5.122;2023-02-28T08:48:02;5.89;74.38
78212;SHT31;67490;52.086;5.122;2023-02-28T08:50:55;5.95;73.08
78212;SHT31;67490;52.086;5.122;2023-02-28T08:53:40;6.03;70.49
78212;SHT31;67490;52.086;5.122;2023-02-28T08:56:25;5.87;70.83
78212;SHT31;67490;52.086;5.122;2023-02-28T08:59:11;5.87;70.49
78212;SHT31;67490;52.086;5.122;2023-02-28T09:01:56;5.87;66.73
78212;SHT31;67490;52.086;5.122;2023-02-28T09:04:40;5.87;70.96
78212;SHT31;67490;52.086;5.122;2023-02-28T09:07:25;5.86;64.95
78212;SHT31;67490;52.086;5.122;2023-02-28T09:10:10;6.00;66.41
78212;SHT31;67490;52.086;5.122;2023-02-28T09:12:55;6.11;66.36
78212;SHT31;67490;52.086;5.122;2023-02-28T09:15:41;6.02;64.23
78212;SHT31;67490;52.086;5.122;2023-02-28T09:18:25;6.10;65.14
78212;SHT31;67490;52.086;5.122;2023-02-28T09:21:13;6.20;67.39
78212;SHT31;67490;52.086;5.122;2023-02-28T09:23:58;6.33;64.17
78212;SHT31;67490;52.086;5.122;2023-02-28T09:26:42;6.23;61.03
78212;SHT31;67490;52.086;5.122;2023-02-28T09:29:27;6.34;61.39
78212;SHT31;67490;52.086;5.122;2023-02-28T09:32:13;6.26;62.12
78212;SHT31;67490;52.086;5.122;2023-02-28T09:34:57;6.34;60.68
78212;SHT31;67490;52.086;5.122;2023-02-28T09:37:42;6.47;58.94
78212;SHT31;67490;52.086;5.122;2023-02-28T09:40:26;6.51;56.03
78212;SHT31;67490;52.086;5.122;2023-02-28T09:43:15;6.64;55.37
78212;SHT31;67490;52.086;5.122;2023-02-28T09:46:08;6.58;52.47
78212;SHT31;67490;52.086;5.122;2023-02-28T09:49:00;6.59;51.92
78212;SHT31;67490;52.086;5.122;2023-02-28T09:51:51;6.44;48.79
78212;SHT31;67490;52.086;5.122;2023-02-28T09:54:39;6.51;51.51
78212;SHT31;67490;52.086;5.122;2023-02-28T09:57:33;6.71;51.10
78212;SHT31;67490;52.086;5.122;2023-02-28T10:00:24;6.84;51.77
78212;SHT31;67490;52.086;5.122;2023-02-28T10:03:26;6.88;50.65
78212;SHT31;67490;52.086;5.122;2023-02-28T10:06:18;6.78;48.55
78212;SHT31;67490;52.086;5.122;2023-02-28T10:09:11;6.89;48.96
78212;SHT31;67490;52.086;5.122;2023-02-28T10:12:03;7.02;45.67
78212;SHT31;67490;52.086;5.122;2023-02-28T10:14:52;6.91;44.20
78212;SHT31;67490;52.086;5.122;2023-02-28T10:17:41;6.81;42.82
78212;SHT31;67490;52.086;5.122;2023-02-28T10:20:28;6.78;43.61
78212;SHT31;67490;52.086;5.122;2023-02-28T10:23:21;6.93;44.98
78212;SHT31;67490;52.086;5.122;2023-02-28T10:26:12;7.30;44.44
78212;SHT31;67490;52.086;5.122;2023-02-28T10:28:57;7.48;43.03
78212;SHT31;67490;52.086;5.122;2023-02-28T10:31:41;7.37;41.34
78212;SHT31;67490;52.086;5.122;2023-02-28T10:34:26;7.57;43.42
78212;SHT31;67490;52.086;5.122;2023-02-28T10:37:12;7.74;42.08
78212;SHT31;67490;52.086;5.122;2023-02-28T10:39:58;7.91;43.03
78212;SHT31;67490;52.086;5.122;2023-02-28T10:42:55;7.51;42.28
78212;SHT31;67490;52.086;5.122;2023-02-28T10:45:56;7.31;41.48
78212;SHT31;67490;52.086;5.122;2023-02-28T10:48:44;7.33;43.36
78212;SHT31;67490;52.086;5.122;2023-02-28T10:51:36;7.31;46.63
78212;SHT31;67490;52.086;5.122;2023-02-28T10:54:26;7.46;42.08
78212;SHT31;67490;52.086;5.122;2023-02-28T10:57:21;7.26;43.23
78212;SHT31;67490;52.086;5.122;2023-02-28T11:00:14;7.17;44.24
78212;SHT31;67490;52.086;5.122;2023-02-28T11:02:59;7.56;44.19
78212;SHT31;67490;52.086;5.122;2023-02-28T11:05:45;7.64;41.69
78212;SHT31;67490;52.086;5.122;2023-02-28T11:08:30;7.81;41.79
78212;SHT31;67490;52.086;5.122;2023-02-28T11:11:16;7.81;44.48
78212;SHT31;67490;52.086;5.122;2023-02-28T11:14:06;7.98;40.84
78212;SHT31;67490;52.086;5.122;2023-02-28T11:17:13;7.99;40.68
78212;SHT31;67490;52.086;5.122;2023-02-28T11:20:02;8.05;39.84
78212;SHT31;67490;52.086;5.122;2023-02-28T11:22:48;7.99;41.79
78212;SHT31;67490;52.086;5.122;2023-02-28T11:25:36;7.94;40.72
78212;SHT31;67490;52.086;5.122;2023-02-28T11:28:28;7.89;37.90
78212;SHT31;67490;52.086;5.122;2023-02-28T11:31:18;7.63;39.11
78212;SHT31;67490;52.086;5.122;2023-02-28T11:34:23;7.56;39.56
78212;SHT31;67490;52.086;5.122;2023-02-28T11:37:15;7.67;39.72
78212;SHT31;67490;52.086;5.122;2023-02-28T11:40:00;7.63;39.15
78212;SHT31;67490;52.086;5.122;2023-02-28T11:42:57;7.64;38.75
78212;SHT31;67490;52.086;5.122;2023-02-28T11:45:55;7.78;38.63
78212;SHT31;67490;52.086;5.122;2023-02-28T11:48:52;7.87;39.70
78212;SHT31;67490;52.086;5.122;2023-02-28T11:51:47;7.78;40.16
78212;SHT31;67490;52.086;5.122;2023-02-28T11:54:51;7.79;39.05
78212;SHT31;67490;52.086;5.122;2023-02-28T11:57:56;7.79;38.79
78212;SHT31;67490;52.086;5.122;2023-02-28T12:01:04;7.68;39.44
78212;SHT31;67490;52.086;5.122;2023-02-28T12:04:03;7.70;38.37
78212;SHT31;67490;52.086;5.122;2023-02-28T12:06:57;7.77;39.24
78212;SHT31;67490;52.086;5.122;2023-02-28T12:09:51;7.95;38.56
78212;SHT31;67490;52.086;5.122;2023-02-28T12:12:46;8.02;38.71
78212;SHT31;67490;52.086;5.122;2023-02-28T12:16:15;8.12;38.84
78212;SHT31;67490;52.086;5.122;2023-02-28T12:19:18;8.10;39.63
78212;SHT31;67490;52.086;5.122;2023-02-28T12:22:21;8.06;38.95
78212;SHT31;67490;52.086;5.122;2023-02-28T12:28:46;8.02;38.38
78212;SHT31;67490;52.086;5.122;2023-02-28T12:31:36;7.98;37.01
78212;SHT31;67490;52.086;5.122;2023-02-28T12:34:28;7.98;39.03
78212;SHT31;67490;52.086;5.122;2023-02-28T12:37:20;8.05;38.83
78212;SHT31;67490;52.086;5.122;2023-02-28T12:40:13;7.99;40.42
78212;SHT31;67490;52.086;5.122;2023-02-28T12:43:04;8.12;36.98
78212;SHT31;67490;52.086;5.122;2023-02-28T12:45:55;8.15;37.89
78212;SHT31;67490;52.086;5.122;2023-02-28T12:48:44;8.09;39.77
78212;SHT31;67490;52.086;5.122;2023-02-28T12:51:34;8.10;36.81
78212;SHT31;67490;52.086;5.122;2023-02-28T12:54:26;8.25;37.82
78212;SHT31;67490;52.086;5.122;2023-02-28T12:57:18;8.05;37.51
78212;SHT31;67490;52.086;5.122;2023-02-28T13:00:13;7.89;36.47
78212;SHT31;67490;52.086;5.122;2023-02-28T13:03:24;8.06;37.49
78212;SHT31;67490;52.086;5.122;2023-02-28T13:06:35;8.13;35.64
78212;SHT31;67490;52.086;5.122;2023-02-28T13:09:23;7.92;35.87
78212;SHT31;67490;52.086;5.122;2023-02-28T13:12:16;7.88;37.11
78212;SHT31;67490;52.086;5.122;2023-02-28T13:15:08;7.85;37.56
78212;SHT31;67490;52.086;5.122;2023-02-28T13:17:58;7.61;37.67
78212;SHT31;67490;52.086;5.122;2023-02-28T13:20:48;7.94;37.01
78212;SHT31;67490;52.086;5.122;2023-02-28T13:23:57;8.22;37.35
78212;SHT31;67490;52.086;5.122;2023-02-28T13:34:06;8.03;35.77
78212;SHT31;67490;52.086;5.122;2023-02-28T13:40:33;8.12;36.23
78212;SHT31;67490;52.086;5.122;2023-02-28T13:43:59;8.10;36.75
78212;SHT31;67490;52.086;5.122;2023-02-28T13:50:23;8.17;37.09
78212;SHT31;67490;52.086;5.122;2023-02-28T13:53:40;8.25;38.13
78212;SHT31;67490;52.086;5.122;2023-02-28T13:56:43;8.45;38.26
78212;SHT31;67490;52.086;5.122;2023-02-28T13:59:38;8.35;37.86
78212;SHT31;67490;52.086;5.122;2023-02-28T14:02:52;8.29;38.42
78212;SHT31;67490;52.086;5.122;2023-02-28T14:05:39;8.22;35.81
78212;SHT31;67490;52.086;5.122;2023-02-28T14:08:24;7.98;37.06
78212;SHT31;67490;52.086;5.122;2023-02-28T14:11:25;8.15;35.97
78212;SHT31;67490;52.086;5.122;2023-02-28T14:17:32;7.99;36.79
78212;SHT31;67490;52.086;5.122;2023-02-28T14:20:18;8.05;36.76
78212;SHT31;67490;52.086;5.122;2023-02-28T14:23:14;8.26;36.48
78212;SHT31;67490;52.086;5.122;2023-02-28T14:26:06;8.32;36.10
78212;SHT31;67490;52.086;5.122;2023-02-28T14:29:23;8.32;36.02
78212;SHT31;67490;52.086;5.122;2023-02-28T14:32:25;8.29;35.92
78212;SHT31;67490;52.086;5.122;2023-02-28T14:35:22;8.29;36.37
78212;SHT31;67490;52.086;5.122;2023-02-28T14:38:17;8.25;38.43
78212;SHT31;67490;52.086;5.122;2023-02-28T14:41:06;8.28;35.80
78212;SHT31;67490;52.086;5.122;2023-02-28T14:43:58;8.35;36.45
78212;SHT31;67490;52.086;5.122;2023-02-28T14:46:43;8.33;35.11
78212;SHT31;67490;52.086;5.122;2023-02-28T14:49:31;8.08;38.75
78212;SHT31;67490;52.086;5.122;2023-02-28T14:52:21;8.21;36.20
78212;SHT31;67490;52.086;5.122;2023-02-28T14:55:14;8.19;36.48
78212;SHT31;67490;52.086;5.122;2023-02-28T14:58:01;8.15;37.94
78212;SHT31;67490;52.086;5.122;2023-02-28T15:00:52;8.33;36.57
78212;SHT31;67490;52.086;5.122;2023-02-28T15:03:39;8.32;37.30
78212;SHT31;67490;52.086;5.122;2023-02-28T15:06:23;8.39;37.14
78212;SHT31;67490;52.086;5.122;2023-02-28T15:09:17;8.36;36.71
78212;SHT31;67490;52.086;5.122;2023-02-28T15:12:03;8.50;36.32
78212;SHT31;67490;52.086;5.122;2023-02-28T15:14:48;8.50;36.25
78212;SHT31;67490;52.086;5.122;2023-02-28T15:17:32;8.29;36.45
78212;SHT31;67490;52.086;5.122;2023-02-28T15:20:19;8.36;36.48
78212;SHT31;67490;52.086;5.122;2023-02-28T15:23:03;8.42;36.40
78212;SHT31;67490;52.086;5.122;2023-02-28T15:25:52;8.43;36.00
78212;SHT31;67490;52.086;5.122;2023-02-28T15:28:36;8.49;35.78
78212;SHT31;67490;52.086;5.122;2023-02-28T15:31:26;8.52;36.29
78212;SHT31;67490;52.086;5.122;2023-02-28T15:34:19;8.39;36.75
78212;SHT31;67490;52.086;5.122;2023-02-28T15:37:26;8.67;36.41
78212;SHT31;67490;52.086;5.122;2023-02-28T15:40:15;8.30;36.85
78212;SHT31;67490;52.086;5.122;2023-02-28T15:43:13;8.49;36.70
78212;SHT31;67490;52.086;5.122;2023-02-28T15:46:01;8.30;37.42
78212;SHT31;67490;52.086;5.122;2023-02-28T15:48:52;8.33;36.97
78212;SHT31;67490;52.086;5.122;2023-02-28T15:51:38;8.26;37.76
78212;SHT31;67490;52.086;5.122;2023-02-28T15:54:24;8.42;39.00
78212;SHT31;67490;52.086;5.122;2023-02-28T15:57:17;8.57;37.34
78212;SHT31;67490;52.086;5.122;2023-02-28T16:00:12;8.49;36.95
78212;SHT31;67490;52.086;5.122;2023-02-28T16:02:57;8.26;36.03
78212;SHT31;67490;52.086;5.122;2023-02-28T16:05:42;8.21;38.71
78212;SHT31;67490;52.086;5.122;2023-02-28T16:08:26;8.29;38.40
78212;SHT31;67490;52.086;5.122;2023-02-28T16:11:10;8.29;36.73
78212;SHT31;67490;52.086;5.122;2023-02-28T16:13:55;8.47;36.65
78212;SHT31;67490;52.086;5.122;2023-02-28T16:16:44;8.40;37.14
78212;SHT31;67490;52.086;5.122;2023-02-28T16:19:29;8.46;35.73
78212;SHT31;67490;52.086;5.122;2023-02-28T16:22:13;8.43;35.88
78212;SHT31;67490;52.086;5.122;2023-02-28T16:24:58;8.26;37.51
78212;SHT31;67490;52.086;5.122;2023-02-28T16:27:45;8.30;36.75
78212;SHT31;67490;52.086;5.122;2023-02-28T16:30:30;8.33;36.68
78212;SHT31;67490;52.086;5.122;2023-02-28T16:33:19;8.36;36.76
78212;SHT31;67490;52.086;5.122;2023-02-28T16:36:06;8.22;38.98
78212;SHT31;67490;52.086;5.122;2023-02-28T16:38:54;8.21;39.63
78212;SHT31;67490;52.086;5.122;2023-02-28T16:41:43;8.40;37.09
78212;SHT31;67490;52.086;5.122;2023-02-28T16:44:30;8.47;37.16
78212;SHT31;67490;52.086;5.122;2023-02-28T16:47:15;8.37;37.11
78212;SHT31;67490;52.086;5.122;2023-02-28T16:50:01;8.35;38.37
78212;SHT31;67490;52.086;5.122;2023-02-28T16:52:45;8.10;38.40
78212;SHT31;67490;52.086;5.122;2023-02-28T16:55:30;8.16;38.30
78212;SHT31;67490;52.086;5.122;2023-02-28T16:58:16;8.03;38.87
78212;SHT31;67490;52.086;5.122;2023-02-28T17:01:01;7.82;38.71
78212;SHT31;67490;52.086;5.122;2023-02-28T17:03:45;7.84;38.91
78212;SHT31;67490;52.086;5.122;2023-02-28T17:06:33;7.77;39.39
78212;SHT31;67490;52.086;5.122;2023-02-28T17:09:20;7.70;39.64
78212;SHT31;67490;52.086;5.122;2023-02-28T17:12:06;7.82;39.29
78212;SHT31;67490;52.086;5.122;2023-02-28T17:14:50;7.64;39.29
78212;SHT31;67490;52.086;5.122;2023-02-28T17:17:34;7.64;41.04
78212;SHT31;67490;52.086;5.122;2023-02-28T17:20:21;7.71;40.44
78212;SHT31;67490;52.086;5.122;2023-02-28T17:23:11;7.84;39.57
78212;SHT31;67490;52.086;5.122;2023-02-28T17:25:56;7.74;40.12
78212;SHT31;67490;52.086;5.122;2023-02-28T17:28:41;7.77;40.28
78212;SHT31;67490;52.086;5.122;2023-02-28T17:31:26;7.73;41.28
78212;SHT31;67490;52.086;5.122;2023-02-28T17:34:11;7.81;41.20
78212;SHT31;67490;52.086;5.122;2023-02-28T17:37:02;7.82;42.13
78212;SHT31;67490;52.086;5.122;2023-02-28T17:39:48;7.79;42.32
78212;SHT31;67490;52.086;5.122;2023-02-28T17:42:33;7.74;43.16
78212;SHT31;67490;52.086;5.122;2023-02-28T17:45:19;7.77;43.24
78212;SHT31;67490;52.086;5.122;2023-02-28T17:48:04;7.65;43.44
78212;SHT31;67490;52.086;5.122;2023-02-28T17:50:49;7.61;44.21
78212;SHT31;67490;52.086;5.122;2023-02-28T17:53:33;7.57;45.01
78212;SHT31;67490;52.086;5.122;2023-02-28T17:56:21;7.53;45.59
78212;SHT31;67490;52.086;5.122;2023-02-28T17:59:09;7.53;46.57
78212;SHT31;67490;52.086;5.122;2023-02-28T18:01:54;7.50;46.65
78212;SHT31;67490;52.086;5.122;2023-02-28T18:04:39;7.54;45.95
78212;SHT31;67490;52.086;5.122;2023-02-28T18:07:24;7.34;46.32
78212;SHT31;67490;52.086;5.122;2023-02-28T18:10:14;7.20;46.84
78212;SHT31;67490;52.086;5.122;2023-02-28T18:13:01;7.17;46.53
78212;SHT31;67490;52.086;5.122;2023-02-28T18:15:47;7.00;47.07
78212;SHT31;67490;52.086;5.122;2023-02-28T18:18:31;6.92;48.47
78212;SHT31;67490;52.086;5.122;2023-02-28T18:21:16;6.93;47.81
78212;SHT31;67490;52.086;5.122;2023-02-28T18:24:01;7.03;47.61
78212;SHT31;67490;52.086;5.122;2023-02-28T18:26:45;6.98;47.66
78212;SHT31;67490;52.086;5.122;2023-02-28T18:29:32;6.92;48.56
78212;SHT31;67490;52.086;5.122;2023-02-28T18:32:17;6.92;48.65
78212;SHT31;67490;52.086;5.122;2023-02-28T18:35:01;7.05;48.68